Time;durP1;ratioP1;P1;durP2;ratioP2;P2;SDS_P1;SDS_P2;PMS_P1;PMS_P2;Temp;Humidity;BMP_temperature;BMP_pressure;BME280_temperature;BME280_humidity;BME280_pressure;Samples;Min_cycle;Max_cycle;Signal;HPM_P1;HPM_P2
2022/08/17 00:02:14;;;;;;;26.95;23.92;;;;;;;26.05;47.88;100819.84;5093307;28;20055;-70
2022/08/17 00:04:56;;;;;;;26.10;23.38;;;;;;;26.05;48.03;100819.84;5093882;28;20054;-69
2022/08/17 00:07:23;;;;;;;29.13;25.25;;;;;;;26.05;47.70;100819.84;5093550;27;20048;-69
2022/08/17 00:09:49;;;;;;;28.92;25.52;;;;;;;26.04;48.14;100809.88;5093580;28;20043;-69
2022/08/17 00:12:16;;;;;;;27.80;24.88;;;;;;;26.00;48.34;100809.44;5092711;28;20044;-69
2022/08/17 00:15:06;;;;;;;28.88;25.83;;;;;;;25.98;48.51;100806.03;5092111;28;20075;-69
2022/08/17 00:17:36;;;;;;;27.55;24.83;;;;;;;25.96;48.35;100803.50;5091987;28;20299;-69
2022/08/17 00:20:03;;;;;;;28.25;25.27;;;;;;;25.93;48.32;100792.91;5093650;28;20032;-69
2022/08/17 00:22:30;;;;;;;27.63;24.83;;;;;;;25.91;48.78;100799.69;5092907;28;20115;-70
2022/08/17 00:25:09;;;;;;;27.98;25.10;;;;;;;25.89;48.58;100799.06;5093465;28;20047;-70
2022/08/17 00:27:35;;;;;;;28.02;25.13;;;;;;;25.86;48.67;100792.06;5108914;28;20412;-69
2022/08/17 00:30:05;;;;;;;31.55;26.15;;;;;;;25.83;48.62;100786.97;5091000;28;20502;-69
2022/08/17 00:32:40;;;;;;;28.70;25.60;;;;;;;25.81;48.79;100791.84;5092997;28;20051;-69
2022/08/17 00:35:29;;;;;;;29.80;26.40;;;;;;;25.81;48.58;100791.84;5091335;28;20028;-70
2022/08/17 00:37:55;;;;;;;29.83;26.73;;;;;;;25.81;48.80;100788.25;5091831;28;20040;-72
2022/08/17 00:40:23;;;;;;;29.88;25.77;;;;;;;25.81;48.81;100796.50;5092594;28;20040;-70
2022/08/17 00:42:51;;;;;;;28.67;24.60;;;;;;;25.81;49.00;100791.00;5092656;28;20040;-69
2022/08/17 00:45:19;;;;;;;30.58;27.33;;;;;;;25.77;49.06;100785.06;5093069;28;20043;-69
2022/08/17 00:47:46;;;;;;;29.60;26.55;;;;;;;25.75;49.18;100783.59;5092817;28;20040;-70
2022/08/17 00:50:16;;;;;;;31.13;27.92;;;;;;;25.73;49.10;100785.69;5092245;27;20122;-70
2022/08/17 00:52:55;;;;;;;29.60;26.67;;;;;;;25.70;49.33;100777.88;5074490;28;20043;-70
2022/08/17 00:55:24;;;;;;;29.75;25.95;;;;;;;25.70;49.12;100783.38;5092815;28;20127;-71
2022/08/17 00:57:55;;;;;;;31.15;27.13;;;;;;;25.67;49.31;100781.88;5092662;28;20032;-69
2022/08/17 01:00:32;;;;;;;30.52;27.30;;;;;;;25.67;49.29;100773.63;5092449;28;20036;-69
2022/08/17 01:03:18;;;;;;;31.65;27.05;;;;;;;25.64;49.42;100774.88;5092951;28;20066;-70
2022/08/17 01:05:50;;;;;;;29.20;26.17;;;;;;;25.65;49.15;100775.72;5092544;28;20044;-69
2022/08/17 01:08:21;;;;;;;29.17;26.10;;;;;;;25.62;49.39;100782.47;5090908;28;20442;-69
2022/08/17 01:10:52;;;;;;;27.20;24.27;;;;;;;25.61;49.48;100775.28;5091470;28;20044;-69
2022/08/17 01:13:35;;;;;;;27.02;24.15;;;;;;;25.60;49.58;100772.75;5092354;28;20139;-69
2022/08/17 01:16:16;;;;;;;32.58;26.67;;;;;;;25.56;49.50;100771.47;5092164;28;20038;-69
2022/08/17 01:18:46;;;;;;;29.58;26.50;;;;;;;25.51;49.56;100766.59;5091914;28;20044;-69
2022/08/17 01:21:23;;;;;;;33.92;26.17;;;;;;;25.47;49.78;100767.22;5092415;28;20040;-69
2022/08/17 01:23:55;;;;;;;29.63;26.48;;;;;;;25.43;49.77;100771.44;5092563;28;20054;-69
2022/08/17 01:26:22;;;;;;;28.58;25.55;;;;;;;25.40;50.01;100767.22;5091429;27;20589;-69
2022/08/17 01:28:49;;;;;;;29.08;25.73;;;;;;;25.37;49.73;100762.13;5072020;28;20044;-69
2022/08/17 01:31:23;;;;;;;28.05;24.85;;;;;;;25.37;50.14;100775.03;5071866;28;20048;-69
2022/08/17 01:33:51;;;;;;;28.60;24.73;;;;;;;25.33;49.95;100761.69;5071623;28;20586;-69
2022/08/17 01:36:18;;;;;;;27.83;24.92;;;;;;;25.31;49.83;100749.22;5091506;28;20047;-69
2022/08/17 01:38:45;;;;;;;27.52;24.55;;;;;;;25.28;50.31;100752.38;5091838;28;20513;-70
2022/08/17 01:41:15;;;;;;;29.73;24.98;;;;;;;25.24;50.31;100745.56;5091961;28;20040;-69
2022/08/17 01:43:50;;;;;;;28.95;25.80;;;;;;;25.17;50.37;100737.31;5091514;28;20541;-68
2022/08/17 01:46:25;;;;;;;27.33;24.48;;;;;;;25.14;50.41;100740.47;5091836;28;20036;-68
2022/08/17 01:48:53;;;;;;;28.65;25.35;;;;;;;25.11;50.27;100735.38;5091648;27;20058;-69
2022/08/17 01:51:20;;;;;;;28.38;25.48;;;;;;;25.09;50.43;100734.75;5091746;28;20036;-68
2022/08/17 01:53:51;;;;;;;27.88;24.98;;;;;;;25.09;50.30;100733.91;5091117;28;20040;-68
2022/08/17 01:56:21;;;;;;;30.27;26.25;;;;;;;25.05;50.69;100736.22;5091688;28;20032;-68
2022/08/17 01:58:47;;;;;;;28.83;25.10;;;;;;;25.02;50.63;100739.38;5091644;28;20044;-68
2022/08/17 02:01:17;;;;;;;26.75;24.02;;;;;;;25.01;50.95;100734.94;5091671;28;20040;-68
2022/08/17 02:03:46;;;;;;;26.65;23.85;;;;;;;25.01;50.70;100744.00;5090885;28;20046;-68
2022/08/17 02:06:25;;;;;;;28.70;24.33;;;;;;;25.01;50.98;100748.66;5091392;27;20051;-68
2022/08/17 02:08:53;;;;;;;26.80;23.85;;;;;;;25.01;50.92;100745.91;5091482;28;20102;-69
2022/08/17 02:11:29;;;;;;;28.00;25.00;;;;;;;25.04;50.98;100745.50;5091405;28;20054;-69
2022/08/17 02:14:00;;;;;;;26.88;23.92;;;;;;;25.05;51.05;100743.59;5089705;28;20032;-69
2022/08/17 02:16:34;;;;;;;28.67;25.13;;;;;;;25.00;50.70;100742.31;5091183;28;20379;-69
2022/08/17 02:19:09;;;;;;;28.10;25.20;;;;;;;24.97;50.94;100731.75;5091434;28;20482;-69
2022/08/17 02:21:37;;;;;;;27.38;24.65;;;;;;;24.95;50.91;100735.72;5090780;28;20044;-69
2022/08/17 02:24:12;;;;;;;29.50;26.33;;;;;;;24.90;51.04;100730.84;5090930;28;20097;-69
2022/08/17 02:26:38;;;;;;;29.00;25.63;;;;;;;24.87;51.16;100739.50;5091056;27;20072;-69
2022/08/17 02:29:06;;;;;;;29.00;25.88;;;;;;;24.84;51.04;100736.31;5091277;28;20040;-69
2022/08/17 02:31:34;;;;;;;30.23;27.05;;;;;;;24.82;51.06;100732.91;5090622;28;20043;-69
2022/08/17 02:34:05;;;;;;;29.27;25.95;;;;;;;24.79;51.37;100730.56;5091476;28;20071;-69
2022/08/17 02:36:35;;;;;;;29.55;26.40;;;;;;;24.75;51.35;100729.28;5089399;28;20046;-69
2022/08/17 02:39:04;;;;;;;30.27;26.02;;;;;;;24.74;51.62;100728.44;5091162;28;20048;-69
2022/08/17 02:41:31;;;;;;;29.48;25.80;;;;;;;24.74;51.59;100724.84;5089423;28;20047;-69
2022/08/17 02:43:58;;;;;;;29.85;26.73;;;;;;;24.73;51.69;100728.66;5090929;28;20391;-69
2022/08/17 02:46:25;;;;;;;29.67;26.58;;;;;;;24.70;51.74;100722.50;5089801;28;20040;-69
2022/08/17 02:48:51;;;;;;;29.38;26.20;;;;;;;24.69;51.81;100722.72;5091082;28;20119;-69
2022/08/17 02:51:18;;;;;;;28.65;25.65;;;;;;;24.67;51.46;100719.31;5089587;28;20044;-69
2022/08/17 02:53:45;;;;;;;29.92;26.80;;;;;;;24.64;51.94;100717.84;5091121;28;20043;-69
2022/08/17 02:56:12;;;;;;;30.15;27.05;;;;;;;24.61;51.86;100712.75;5090931;28;20178;-69
2022/08/17 02:58:39;;;;;;;29.48;26.45;;;;;;;24.60;51.93;100718.44;5090969;28;20036;-69
2022/08/17 03:01:08;;;;;;;28.85;25.83;;;;;;;24.60;51.93;100704.72;5089335;28;20044;-69
2022/08/17 03:03:37;;;;;;;29.08;25.98;;;;;;;24.58;52.03;100707.66;5090862;28;20123;-69
2022/08/17 03:06:06;;;;;;;29.92;25.35;;;;;;;24.58;51.97;100693.94;5090859;28;20271;-69
2022/08/17 03:08:33;;;;;;;29.38;25.70;;;;;;;24.57;52.31;100694.16;5090906;28;20486;-69
2022/08/17 03:11:00;;;;;;;30.00;26.00;;;;;;;24.58;52.01;100698.59;5090092;28;20078;-69
2022/08/17 03:13:29;;;;;;;30.67;27.52;;;;;;;24.58;52.15;100699.44;5090964;28;20040;-68
2022/08/17 03:15:56;;;;;;;29.33;26.10;;;;;;;24.57;52.14;100708.72;5090733;28;20040;-69
2022/08/17 03:18:24;;;;;;;27.63;24.73;;;;;;;24.57;52.01;100711.47;5090682;28;20051;-70
2022/08/17 03:20:58;;;;;;;28.85;24.98;;;;;;;24.58;52.02;100713.16;5090643;28;20040;-68
2022/08/17 03:23:29;;;;;;;28.13;25.15;;;;;;;24.57;51.99;100708.72;5089415;28;20113;-70
2022/08/17 03:25:57;;;;;;;30.42;26.10;;;;;;;24.57;52.01;100711.47;5089215;28;20044;-70
2022/08/17 03:28:24;;;;;;;29.95;26.77;;;;;;;24.57;52.12;100710.63;5090352;28;20375;-70
2022/08/17 03:30:51;;;;;;;29.98;26.75;;;;;;;24.56;52.18;100709.78;5090696;28;20044;-70
2022/08/17 03:33:20;;;;;;;29.58;26.50;;;;;;;24.58;52.13;100709.56;5091622;28;20032;-70
2022/08/17 03:35:47;;;;;;;31.05;27.33;;;;;;;24.57;52.21;100707.88;5094249;28;20036;-70
2022/08/17 03:38:15;;;;;;;32.28;27.13;;;;;;;24.58;52.42;100715.06;5093902;28;20038;-69
2022/08/17 03:40:45;;;;;;;30.77;27.48;;;;;;;24.58;52.49;100715.06;5094268;28;20079;-69
2022/08/17 03:43:31;;;;;;;28.25;25.33;;;;;;;24.59;52.29;100714.00;5094060;28;20086;-69
2022/08/17 03:57:28;;;;;;;30.58;26.60;;;;;;;24.60;52.22;100713.81;5093349;28;20046;-69
2022/08/17 03:59:55;;;;;;;32.42;25.27;;;;;;;24.59;52.34;100717.59;5093799;28;20115;-69
2022/08/17 04:02:28;;;;;;;30.13;27.05;;;;;;;24.58;52.33;100713.16;5093498;28;20050;-70
2022/08/17 04:04:55;;;;;;;29.83;26.58;;;;;;;24.58;52.52;100720.56;5093664;27;20051;-69
2022/08/17 04:07:25;;;;;;;28.80;25.90;;;;;;;24.60;52.27;100724.78;5092898;28;20051;-70
2022/08/17 04:09:51;;;;;;;29.33;25.75;;;;;;;24.60;52.52;100726.69;5093641;28;20415;-69
2022/08/17 04:12:20;;;;;;;33.90;27.15;;;;;;;24.59;52.59;100727.75;5093445;28;20039;-69
2022/08/17 04:14:51;;;;;;;31.17;28.08;;;;;;;24.59;52.54;100725.00;5093729;28;20044;-69
2022/08/17 04:17:27;;;;;;;30.10;26.95;;;;;;;24.58;52.57;100724.16;5092672;28;20049;-69
2022/08/17 04:19:54;;;;;;;31.02;27.73;;;;;;;24.59;52.65;100727.75;5093383;28;20126;-69
2022/08/17 04:22:22;;;;;;;29.30;26.27;;;;;;;24.58;52.62;100734.28;5093119;28;20063;-69
2022/08/17 04:25:03;;;;;;;29.83;26.77;;;;;;;24.58;52.54;100734.28;5093993;28;20028;-69
2022/08/17 04:27:30;;;;;;;31.75;28.20;;;;;;;24.55;52.82;100732.78;5092990;28;20046;-70
2022/08/17 04:29:57;;;;;;;32.05;28.63;;;;;;;24.51;52.47;100736.09;5091765;28;20466;-69
2022/08/17 04:32:24;;;;;;;32.78;29.15;;;;;;;24.46;52.93;100727.63;5092746;28;20032;-69
2022/08/17 04:35:17;;;;;;;31.10;27.85;;;;;;;24.44;52.87;100732.47;5092163;28;20040;-70
2022/08/17 04:37:44;;;;;;;31.30;27.00;;;;;;;24.41;53.08;100731.00;5092838;28;20040;-69
2022/08/17 04:43:29;;;;;;;32.78;28.88;;;;;;;24.42;53.17;100727.19;5092825;28;20044;-70
2022/08/17 04:45:59;;;;;;;33.60;28.73;;;;;;;24.43;53.20;100731.63;5069456;28;20055;-69
2022/08/17 04:48:31;;;;;;;31.65;28.15;;;;;;;24.43;53.33;100731.63;5092888;28;20032;-70
2022/08/17 04:51:10;;;;;;;28.67;25.63;;;;;;;24.47;53.26;100743.91;5092960;28;20040;-69
2022/08/17 04:53:44;;;;;;;33.38;28.10;;;;;;;24.50;53.44;100739.91;5092854;28;20040;-69
2022/08/17 04:56:14;;;;;;;31.05;27.65;;;;;;;24.52;53.58;100738.66;5092325;28;20094;-70
2022/08/17 04:58:47;;;;;;;30.60;27.38;;;;;;;24.56;53.32;100742.72;5092600;28;20051;-69
2022/08/17 05:01:16;;;;;;;30.05;26.85;;;;;;;24.61;53.50;100756.69;5092864;27;20059;-69
2022/08/17 05:03:53;;;;;;;30.58;27.30;;;;;;;24.66;53.37;100756.06;5092578;28;20479;-69
2022/08/17 05:06:20;;;;;;;28.98;25.98;;;;;;;24.69;53.31;100770.25;5091710;27;20501;-69
2022/08/17 05:08:46;;;;;;;28.88;25.73;;;;;;;24.71;53.20;100784.63;5091328;28;20044;-70
2022/08/17 05:11:13;;;;;;;32.90;28.40;;;;;;;24.69;53.22;100814.19;5092374;28;20047;-69
2022/08/17 05:13:40;;;;;;;35.45;28.98;;;;;;;24.64;53.46;100824.94;5092689;28;20429;-69
2022/08/17 05:16:07;;;;;;;34.28;29.90;;;;;;;24.62;53.55;100810.56;5091801;28;20054;-69
2022/08/17 05:18:36;;;;;;;39.10;31.65;;;;;;;24.58;53.90;100783.72;5092523;28;20050;-69
2022/08/17 05:21:03;;;;;;;34.67;29.23;;;;;;;24.53;53.74;100798.03;5092325;28;20040;-69
2022/08/17 05:23:35;;;;;;;36.85;31.38;;;;;;;24.52;53.97;100796.31;5090824;28;20051;-69
2022/08/17 05:26:11;;;;;;;34.67;31.05;;;;;;;24.53;54.09;100805.44;5091530;28;20130;-69
2022/08/17 05:28:58;;;;;;;33.60;30.10;;;;;;;24.52;54.13;100825.66;5091945;27;20078;-70
2022/08/17 05:31:29;;;;;;;35.15;31.55;;;;;;;24.53;54.22;100814.50;5091869;28;20047;-70
2022/08/17 05:34:00;;;;;;;34.97;31.17;;;;;;;24.50;54.65;100795.66;5091992;28;20043;-69
2022/08/17 05:36:27;;;;;;;35.03;30.88;;;;;;;24.51;54.61;100797.34;5091871;28;20078;-69
2022/08/17 05:39:09;;;;;;;40.92;32.38;;;;;;;24.53;54.40;100806.28;5091993;28;20387;-70
2022/08/17 05:41:44;;;;;;;36.97;32.25;;;;;;;24.57;54.76;100817.69;5091021;28;20028;-69
2022/08/17 05:44:13;;;;;;;35.13;31.38;;;;;;;24.62;54.47;100827.03;5091117;28;20036;-69
2022/08/17 05:46:42;;;;;;;35.70;31.98;;;;;;;24.66;54.50;100814.59;5090145;28;20059;-69
2022/08/17 05:49:11;;;;;;;34.65;31.02;;;;;;;24.70;54.45;100804.06;5091807;28;20381;-69
2022/08/17 05:52:16;;;;;;;36.35;32.45;;;;;;;24.71;54.50;100798.38;5090688;28;20032;-69
2022/08/17 05:55:09;;;;;;;34.83;31.23;;;;;;;24.70;54.75;100793.06;5091785;28;20498;-70
2022/08/17 05:58:02;;;;;;;40.83;32.45;;;;;;;24.68;54.58;100789.69;5091347;28;20040;-71
2022/08/17 06:00:40;;;;;;;36.45;32.58;;;;;;;24.67;54.59;100794.31;5091114;28;20044;-70
2022/08/17 06:03:48;;;;;;;36.03;31.42;;;;;;;24.67;54.94;100791.56;5091421;28;20546;-71
2022/08/17 06:06:29;;;;;;;36.58;32.08;;;;;;;24.68;54.71;100776.78;5091580;28;20040;-70
2022/08/17 06:08:57;;;;;;;36.13;32.10;;;;;;;24.67;54.61;100772.34;5091500;28;20089;-70
2022/08/17 06:11:35;;;;;;;37.00;31.83;;;;;;;24.68;54.75;100770.47;5091129;28;20332;-70
2022/08/17 06:14:08;;;;;;;36.25;31.55;;;;;;;24.73;54.67;100783.56;5091599;28;20513;-70
2022/08/17 06:16:42;;;;;;;36.30;30.45;;;;;;;24.76;54.84;100785.91;5091171;28;20047;-69
2022/08/17 06:19:30;;;;;;;34.00;29.65;;;;;;;24.79;54.88;100775.38;5091259;28;20040;-68
2022/08/17 06:21:59;;;;;;;35.10;29.63;;;;;;;24.84;54.76;100777.50;5089442;28;20045;-69
2022/08/17 06:24:42;;;;;;;34.17;29.83;;;;;;;24.86;54.81;100787.25;5091240;28;20048;-68
2022/08/17 06:27:37;;;;;;;32.22;28.80;;;;;;;24.90;55.02;100795.91;5091199;28;20043;-69
2022/08/17 06:30:24;;;;;;;36.10;29.90;;;;;;;24.94;54.75;100798.06;5091001;28;20482;-70
2022/08/17 06:32:54;;;;;;;32.70;29.20;;;;;;;24.97;54.62;100797.69;5070896;28;20044;-69
2022/08/17 06:35:25;;;;;;;34.35;29.30;;;;;;;25.00;54.87;100804.66;5071044;28;20049;-69
2022/08/17 06:38:13;;;;;;;32.60;29.10;;;;;;;25.06;54.75;100797.50;5071227;28;20076;-69
2022/08/17 06:41:03;;;;;;;32.90;29.60;;;;;;;25.15;55.02;100801.78;5090400;28;20410;-69
2022/08/17 06:44:01;;;;;;;33.38;29.90;;;;;;;25.20;55.18;100797.34;5091014;28;20140;-68
2022/08/17 06:46:40;;;;;;;36.97;30.73;;;;;;;25.31;54.82;100793.19;5088001;28;20425;-69
2022/08/17 06:49:20;;;;;;;37.15;29.67;;;;;;;25.37;54.83;100792.38;5091051;28;20044;-69
2022/08/17 06:51:56;;;;;;;34.10;30.45;;;;;;;25.45;54.70;100802.31;5090839;28;20044;-69
2022/08/17 06:54:39;;;;;;;31.77;28.33;;;;;;;25.52;54.83;100805.94;5091281;28;20506;-73
2022/08/17 06:57:22;;;;;;;34.92;30.25;;;;;;;25.60;54.54;100808.50;5088296;28;20094;-73
2022/08/17 06:59:58;;;;;;;34.72;30.65;;;;;;;25.64;54.47;100809.78;5089294;28;20173;-72
2022/08/17 07:02:38;;;;;;;32.95;29.45;;;;;;;25.68;54.39;100804.75;5089898;28;20128;-73
2022/08/17 07:05:35;;;;;;;35.33;29.95;;;;;;;25.74;54.41;100807.50;5090991;28;20043;-72
2022/08/17 07:08:13;;;;;;;35.30;28.45;;;;;;;25.79;54.26;100817.88;5093285;28;20065;-72
2022/08/17 07:10:46;;;;;;;33.40;28.70;;;;;;;25.80;54.23;100811.31;5095049;28;20398;-72
2022/08/17 07:13:24;;;;;;;36.63;28.60;;;;;;;25.82;54.25;100809.22;5094768;28;20494;-72
2022/08/17 07:15:57;;;;;;;33.33;27.05;;;;;;;25.82;54.00;100809.22;5076547;28;20042;-72
2022/08/17 07:18:28;;;;;;;41.47;28.38;;;;;;;25.84;54.28;100829.09;5094796;28;20097;-72
2022/08/17 07:21:07;;;;;;;37.17;29.52;;;;;;;25.86;54.16;100830.59;5095310;28;20036;-72
2022/08/17 07:23:59;;;;;;;41.97;31.00;;;;;;;25.86;54.12;100824.22;5093228;28;20035;-72
2022/08/17 07:26:27;;;;;;;33.33;29.63;;;;;;;25.87;54.02;100834.19;5094680;28;20486;-72
2022/08/17 07:28:57;;;;;;;35.30;29.63;;;;;;;25.89;54.16;100845.81;5094709;28;20059;-72
2022/08/17 07:31:27;;;;;;;36.33;28.27;;;;;;;25.93;54.08;100845.19;5093987;28;20032;-73
2022/08/17 07:34:21;;;;;;;35.35;28.92;;;;;;;25.97;54.09;100842.88;5094154;28;20040;-72
2022/08/17 07:37:02;;;;;;;29.75;26.60;;;;;;;26.03;54.12;100846.72;5092616;28;20046;-72
2022/08/17 07:39:29;;;;;;;38.75;26.70;;;;;;;26.08;53.84;100846.94;5092800;28;20394;-72
2022/08/17 07:42:03;;;;;;;29.85;26.73;;;;;;;26.12;53.83;100848.22;5094015;28;20036;-72
2022/08/17 07:44:49;;;;;;;33.35;26.50;;;;;;;26.17;53.89;100845.69;5094586;28;20101;-72
2022/08/17 07:50:01;;;;;;;28.52;25.38;;;;;;;26.29;53.56;100841.22;5093058;28;20044;-73
2022/08/17 07:52:31;;;;;;;27.85;24.75;;;;;;;26.34;53.30;100841.47;5093937;28;20044;-72
2022/08/17 07:55:33;;;;;;;28.10;25.20;;;;;;;26.42;53.27;100845.91;5094194;28;20574;-72
2022/08/17 07:58:00;;;;;;;26.20;23.40;;;;;;;26.49;53.35;100861.38;5093623;28;20039;-72
2022/08/17 08:00:28;;;;;;;28.23;24.67;;;;;;;26.55;53.04;100862.44;5093398;28;20048;-73
2022/08/17 08:05:32;;;;;;;31.10;24.52;;;;;;;26.63;52.79;100873.22;5093651;28;20409;-72
2022/08/17 08:08:23;;;;;;;29.10;24.40;;;;;;;26.66;52.71;100880.22;5093420;28;20040;-72
2022/08/17 08:11:03;;;;;;;32.08;24.80;;;;;;;26.65;52.48;100889.53;5092452;28;20036;-72
2022/08/17 08:13:41;;;;;;;25.77;23.08;;;;;;;26.64;52.46;100907.97;5099136;27;20071;-72
2022/08/17 08:16:23;;;;;;;24.50;21.90;;;;;;;26.62;52.44;100932.16;5092071;28;20097;-71
2022/08/17 08:18:56;;;;;;;27.13;22.63;;;;;;;26.60;52.17;100932.34;5093068;28;20401;-71
2022/08/17 08:21:45;;;;;;;27.95;24.40;;;;;;;26.61;52.24;100927.69;5092955;28;20036;-70
2022/08/17 08:24:42;;;;;;;28.35;25.20;;;;;;;26.59;52.46;100900.34;5097059;28;20046;-71
2022/08/17 08:27:27;;;;;;;31.17;27.88;;;;;;;26.54;52.76;100849.72;5113472;28;20047;-71
2022/08/17 08:29:54;;;;;;;32.78;29.20;;;;;;;26.48;53.15;100806.50;5072764;28;20056;-71
2022/08/17 08:32:52;;;;;;;34.28;30.13;;;;;;;26.39;53.35;100783.00;5088996;28;20044;-72
2022/08/17 08:35:52;;;;;;;32.95;29.40;;;;;;;26.33;53.54;100808.66;5075231;28;20062;-73
2022/08/17 08:38:26;;;;;;;34.20;30.63;;;;;;;26.26;53.60;100822.38;5091602;28;20351;-72
2022/08/17 08:41:15;;;;;;;34.83;29.63;;;;;;;26.21;53.97;100820.28;5092891;28;20032;-73
2022/08/17 08:44:10;;;;;;;35.75;31.38;;;;;;;26.21;54.47;100838.69;5093124;28;20036;-72
2022/08/17 08:46:59;;;;;;;33.70;28.42;;;;;;;26.21;54.34;100857.97;5091505;28;20044;-73
2022/08/17 08:49:42;;;;;;;35.10;30.88;;;;;;;26.22;54.42;100866.00;5093039;28;20047;-73
2022/08/17 08:52:29;;;;;;;36.45;32.60;;;;;;;26.33;54.77;100860.97;5091328;28;20486;-73
2022/08/17 08:55:07;;;;;;;38.55;31.85;;;;;;;26.39;54.93;100854.59;5091231;28;20055;-73
2022/08/17 08:57:45;;;;;;;34.28;30.50;;;;;;;26.48;54.98;100834.06;5093023;28;20036;-73
2022/08/17 09:00:14;;;;;;;34.20;29.80;;;;;;;26.63;54.90;100839.31;5091239;28;20107;-74
2022/08/17 09:03:18;;;;;;;35.25;29.50;;;;;;;26.76;54.92;100842.09;5092232;28;20051;-74
2022/08/17 09:06:10;;;;;;;31.42;28.02;;;;;;;26.84;54.70;100848.22;5079674;28;20054;-73
2022/08/17 09:09:16;;;;;;;31.05;27.58;;;;;;;27.03;54.59;100854.78;5092413;28;20040;-73
2022/08/17 09:11:48;;;;;;;34.15;29.17;;;;;;;27.20;54.34;100844.94;5092105;28;20393;-72
2022/08/17 09:15:20;;;;;;;31.13;27.42;;;;;;;27.33;53.58;100857.00;5092222;28;20040;-72
2022/08/17 09:18:18;;;;;;;29.25;26.23;;;;;;;27.36;53.14;100868.44;5047050;28;20378;-72
2022/08/17 09:21:27;;;;;;;30.45;26.75;;;;;;;27.43;52.87;100873.94;5092316;28;20048;-72
2022/08/17 09:24:19;;;;;;;30.83;26.67;;;;;;;27.53;52.79;100875.19;5091801;28;20056;-72
2022/08/17 09:27:18;;;;;;;31.63;28.27;;;;;;;27.63;52.63;100873.88;5090737;28;20051;-72
2022/08/17 09:29:57;;;;;;;31.77;28.45;;;;;;;27.72;52.47;100878.94;5091824;28;20387;-72
2022/08/17 09:32:32;;;;;;;32.10;28.60;;;;;;;27.78;52.23;100879.97;5091034;28;20047;-72
2022/08/17 09:35:15;;;;;;;33.10;29.63;;;;;;;27.81;52.03;100882.28;5090298;28;20047;-72
2022/08/17 09:38:04;;;;;;;33.17;29.60;;;;;;;27.85;52.06;100881.63;5091940;28;20040;-72
2022/08/17 09:40:43;;;;;;;33.03;28.92;;;;;;;27.87;51.60;100889.69;5091566;28;20036;-72
2022/08/17 09:43:47;;;;;;;32.10;28.83;;;;;;;27.88;51.70;100891.38;5091743;28;20048;-72
2022/08/17 09:46:33;;;;;;;30.70;27.40;;;;;;;27.98;51.88;100896.41;5091554;28;20055;-71
2022/08/17 09:49:30;;;;;;;31.30;27.90;;;;;;;28.07;51.59;100908.88;5091747;28;20073;-72
2022/08/17 09:52:04;;;;;;;31.80;28.35;;;;;;;28.15;51.49;100922.41;5091526;28;20393;-72
2022/08/17 09:54:36;;;;;;;30.17;27.00;;;;;;;28.17;51.42;100928.56;5091660;28;20036;-72
2022/08/17 09:57:21;;;;;;;31.00;27.65;;;;;;;28.16;51.34;100943.44;5090415;28;20172;-72
2022/08/17 10:00:08;;;;;;;29.40;26.42;;;;;;;28.13;51.38;100952.16;5091168;28;20145;-72
2022/08/17 10:03:28;;;;;;;32.10;28.27;;;;;;;28.13;51.51;100952.16;5091376;28;20078;-72
2022/08/17 10:06:12;;;;;;;32.38;28.85;;;;;;;28.16;51.31;100947.03;5091497;28;20040;-72
2022/08/17 10:08:51;;;;;;;30.35;27.10;;;;;;;28.16;51.26;100944.28;5091570;28;20043;-72
2022/08/17 10:14:58;;;;;;;29.58;26.33;;;;;;;28.11;50.81;100959.81;5091218;28;20040;-72
2022/08/17 10:17:49;;;;;;;30.42;26.40;;;;;;;28.08;50.49;100958.34;5091161;28;20085;-72
2022/08/17 10:20:24;;;;;;;28.98;25.77;;;;;;;28.04;50.81;100970.91;5089854;28;20089;-71
2022/08/17 10:28:43;;;;;;;29.83;26.45;;;;;;;27.93;50.76;100960.56;5090724;28;20040;-70
2022/08/17 10:31:16;;;;;;;28.70;25.10;;;;;;;27.89;50.80;100955.69;5089485;28;20037;-69
2022/08/17 10:34:30;;;;;;;28.40;25.00;;;;;;;27.84;50.51;100956.34;5090874;28;20047;-67
2022/08/17 10:37:27;;;;;;;28.63;25.27;;;;;;;27.81;50.81;100954.88;5090846;28;20040;-68
2022/08/17 10:40:24;;;;;;;31.63;25.55;;;;;;;27.81;50.87;100959.56;5090829;28;20036;-68
2022/08/17 10:43:43;;;;;;;31.88;26.08;;;;;;;27.75;50.99;100954.91;5093117;28;20383;-68
2022/08/17 10:46:56;;;;;;;31.00;26.95;;;;;;;27.65;51.14;100949.03;5094258;28;20040;-69
2022/08/17 10:49:31;;;;;;;30.52;27.23;;;;;;;27.60;51.41;100946.03;5074792;28;20051;-69
2022/08/17 10:52:02;;;;;;;31.52;28.08;;;;;;;27.57;51.54;100947.31;5085927;28;20036;-69
2022/08/17 10:54:44;;;;;;;29.90;26.70;;;;;;;27.54;51.49;100947.75;5098489;28;20055;-69
2022/08/17 10:57:26;;;;;;;31.55;26.75;;;;;;;27.52;51.65;100936.94;5074428;28;20040;-72
2022/08/17 10:59:57;;;;;;;32.38;27.05;;;;;;;27.53;51.72;100929.50;5072580;28;20049;-71
2022/08/17 11:02:47;;;;;;;30.83;26.70;;;;;;;27.50;51.79;100925.28;5073964;28;20037;-71
2022/08/17 11:05:27;;;;;;;34.72;27.13;;;;;;;27.49;51.70;100919.94;5074332;28;20049;-71
2022/08/17 11:08:18;;;;;;;30.92;27.58;;;;;;;27.46;51.78;100923.13;5074089;28;20051;-70
2022/08/17 11:11:05;;;;;;;31.73;28.05;;;;;;;27.45;51.84;100918.69;5074382;28;20040;-70
2022/08/17 11:13:47;;;;;;;32.67;29.27;;;;;;;27.40;52.10;100921.25;5074427;28;20041;-71
2022/08/17 11:16:39;;;;;;;33.50;29.95;;;;;;;27.36;51.96;100920.84;5074173;28;20041;-71
2022/08/17 11:19:11;;;;;;;31.80;28.30;;;;;;;27.34;52.03;100925.72;5059857;28;20095;-72
2022/08/17 11:22:10;;;;;;;31.38;27.90;;;;;;;27.29;52.06;100924.69;5077237;28;20044;-71
2022/08/17 11:24:46;;;;;;;31.80;27.83;;;;;;;27.28;52.24;100942.28;5097852;28;20055;-70
2022/08/17 11:27:30;;;;;;;31.27;26.88;;;;;;;27.27;52.33;100941.44;5092504;28;20135;-71
2022/08/17 11:30:02;;;;;;;31.20;27.95;;;;;;;27.29;52.47;100931.03;5101070;28;20080;-70
2022/08/17 11:32:32;;;;;;;30.50;27.27;;;;;;;27.33;52.57;100940.56;5093652;28;20048;-70
2022/08/17 11:35:43;;;;;;;32.38;28.88;;;;;;;27.33;52.65;100948.84;5094077;28;20302;-71
2022/08/17 11:38:11;;;;;;;32.35;26.98;;;;;;;27.36;52.40;100953.94;5011419;28;20141;-71
2022/08/17 11:41:17;;;;;;;32.40;28.20;;;;;;;27.33;52.37;100948.00;5085604;28;20524;-71
2022/08/17 11:44:23;;;;;;;33.40;28.48;;;;;;;27.31;52.52;100950.13;5087033;28;20056;-72
2022/08/17 11:53:05;;;;;;;32.47;29.17;;;;;;;27.39;52.57;100960.94;5093724;28;19931;-73
2022/08/17 11:55:34;;;;;;;34.95;30.35;;;;;;;27.35;52.73;100966.03;5092743;28;20051;-72
2022/08/17 11:58:37;;;;;;;34.17;30.50;;;;;;;27.33;52.89;100973.66;5093652;28;20044;-72
2022/08/17 12:01:22;;;;;;;34.55;30.95;;;;;;;27.34;52.89;100985.56;5093867;28;20507;-72
2022/08/17 12:03:57;;;;;;;36.28;31.80;;;;;;;27.32;52.69;100984.91;5098135;28;20027;-72
2022/08/17 12:06:45;;;;;;;36.63;32.03;;;;;;;27.31;52.93;100991.50;5076897;28;20042;-70
2022/08/17 12:09:20;;;;;;;37.38;33.45;;;;;;;27.30;53.10;100998.06;5083553;28;20089;-71
2022/08/17 12:11:55;;;;;;;87.18;40.20;;;;;;;27.28;53.26;101001.06;5093135;28;20044;-72
2022/08/17 12:14:46;;;;;;;41.60;35.65;;;;;;;27.32;53.42;101006.97;5091900;28;20081;-71
2022/08/17 12:17:34;;;;;;;40.05;35.88;;;;;;;27.35;53.37;101012.91;5090225;28;20036;-72
2022/08/17 12:20:30;;;;;;;40.38;35.30;;;;;;;27.37;53.46;101012.69;5093253;28;20085;-71
2022/08/17 12:23:29;;;;;;;37.42;33.45;;;;;;;27.42;53.53;101013.75;5093377;28;20044;-71
2022/08/17 12:26:18;;;;;;;36.72;32.47;;;;;;;27.46;53.65;101017.78;5093188;28;20048;-71
2022/08/17 12:28:56;;;;;;;36.08;31.63;;;;;;;27.46;53.72;101016.94;5092334;28;20506;-72
2022/08/17 12:31:29;;;;;;;34.95;31.33;;;;;;;27.43;53.57;101020.13;5092952;28;20115;-72
2022/08/17 12:34:02;;;;;;;37.10;33.25;;;;;;;27.43;53.62;101007.16;5091823;28;20112;-71